Andover, Connecticut
Current Conditions -  °F | °C
As of 9:52 AM on Monday 22 Dec 2014 (Local Time) from KIJD Reporting Station
Overcast Overcast  
Wind Chill: 36°   Ceiling: 4400
Heat Index: 39°   Visibility: 10mi
Dew Point: 32°   Wind: 5mph
Humidity: 76%   Direction: 30°NNE
Pressure: 30.36"   Gusts: NA
Location:  41.74°N, 72.37°W
Report Text: KIJD 221452Z AUTO 03004KT 10SM OVC044 04/00 A3036 RMK AO2 SLP283 T00390000 53003
Loading
Personal Weather Stations






























Interactive Weather Map New forecast layout! Learn more

10-Day Weather Forecast

Advertisements
Track Severe Weather on mobile